sensor_id;sensor_type;location;lat;lon;timestamp;temperature;humidity
16388;DHT22;8303;53.446;9.988;2023-05-18T04:47:15;8.10;99.90
16388;DHT22;8303;53.446;9.988;2023-05-18T04:49:42;8.10;99.90
16388;DHT22;8303;53.446;9.988;2023-05-18T04:52:09;8.20;99.90
16388;DHT22;8303;53.446;9.988;2023-05-18T04:54:36;8.30;99.90
16388;DHT22;8303;53.446;9.988;2023-05-18T04:57:06;8.30;99.90
16388;DHT22;8303;53.446;9.988;2023-05-18T04:59:36;8.40;99.90
16388;DHT22;8303;53.446;9.988;2023-05-18T05:02:04;8.50;99.90
16388;DHT22;8303;53.446;9.988;2023-05-18T05:04:32;8.40;99.90
16388;DHT22;8303;53.446;9.988;2023-05-18T05:06:59;8.50;99.90
16388;DHT22;8303;53.446;9.988;2023-05-18T05:09:26;8.60;99.90
16388;DHT22;8303;53.446;9.988;2023-05-18T05:11:54;8.80;99.90
16388;DHT22;8303;53.446;9.988;2023-05-18T05:14:21;8.80;99.90
16388;DHT22;8303;53.446;9.988;2023-05-18T05:16:48;8.80;99.90
16388;DHT22;8303;53.446;9.988;2023-05-18T05:19:15;9.00;99.90
16388;DHT22;8303;53.446;9.988;2023-05-18T05:21:44;8.80;99.90
16388;DHT22;8303;53.446;9.988;2023-05-18T05:24:11;8.90;99.90
16388;DHT22;8303;53.446;9.988;2023-05-18T05:26:38;8.70;99.90
16388;DHT22;8303;53.446;9.988;2023-05-18T05:29:05;8.60;99.90
16388;DHT22;8303;53.446;9.988;2023-05-18T05:31:32;8.80;99.90
16388;DHT22;8303;53.446;9.988;2023-05-18T05:33:59;8.60;99.90
16388;DHT22;8303;53.446;9.988;2023-05-18T05:36:27;8.70;99.90
16388;DHT22;8303;53.446;9.988;2023-05-18T05:38:56;8.70;99.90
16388;DHT22;8303;53.446;9.988;2023-05-18T05:41:23;8.70;99.90
16388;DHT22;8303;53.446;9.988;2023-05-18T05:43:50;8.60;99.90
16388;DHT22;8303;53.446;9.988;2023-05-18T05:46:17;8.60;99.90
16388;DHT22;8303;53.446;9.988;2023-05-18T05:48:44;8.80;99.90
16388;DHT22;8303;53.446;9.988;2023-05-18T05:51:12;8.80;99.90
16388;DHT22;8303;53.446;9.988;2023-05-18T05:53:39;8.90;99.90
16388;DHT22;8303;53.446;9.988;2023-05-18T05:56:12;9.00;99.90
16388;DHT22;8303;53.446;9.988;2023-05-18T05:58:39;9.00;99.90
16388;DHT22;8303;53.446;9.988;2023-05-18T06:01:06;9.10;99.90
16388;DHT22;8303;53.446;9.988;2023-05-18T06:03:34;9.10;99.90
16388;DHT22;8303;53.446;9.988;2023-05-18T06:06:01;9.10;99.90
16388;DHT22;8303;53.446;9.988;2023-05-18T06:08:29;9.10;99.90
16388;DHT22;8303;53.446;9.988;2023-05-18T06:10:56;9.10;99.90
16388;DHT22;8303;53.446;9.988;2023-05-18T06:13:25;9.20;99.90
16388;DHT22;8303;53.446;9.988;2023-05-18T06:15:52;9.10;99.90
16388;DHT22;8303;53.446;9.988;2023-05-18T06:18:19;9.00;99.90
16388;DHT22;8303;53.446;9.988;2023-05-18T06:20:47;9.00;99.90
16388;DHT22;8303;53.446;9.988;2023-05-18T06:23:14;9.20;99.90
16388;DHT22;8303;53.446;9.988;2023-05-18T06:25:47;9.20;99.90
16388;DHT22;8303;53.446;9.988;2023-05-18T06:28:14;9.40;99.90
16388;DHT22;8303;53.446;9.988;2023-05-18T06:30:43;9.50;99.90
16388;DHT22;8303;53.446;9.988;2023-05-18T06:33:11;9.60;99.90
16388;DHT22;8303;53.446;9.988;2023-05-18T06:35:39;9.50;99.90
16388;DHT22;8303;53.446;9.988;2023-05-18T06:38:07;9.40;99.90
16388;DHT22;8303;53.446;9.988;2023-05-18T06:40:34;9.30;99.90
16388;DHT22;8303;53.446;9.988;2023-05-18T06:43:01;9.40;99.90
16388;DHT22;8303;53.446;9.988;2023-05-18T06:45:29;9.70;99.90
16388;DHT22;8303;53.446;9.988;2023-05-18T06:47:57;10.00;99.90
16388;DHT22;8303;53.446;9.988;2023-05-18T06:50:26;10.00;99.90
16388;DHT22;8303;53.446;9.988;2023-05-18T06:52:53;10.00;99.90
16388;DHT22;8303;53.446;9.988;2023-05-18T06:55:21;10.00;99.90
16388;DHT22;8303;53.446;9.988;2023-05-18T06:57:48;9.80;99.90
16388;DHT22;8303;53.446;9.988;2023-05-18T07:00:17;9.80;99.90
16388;DHT22;8303;53.446;9.988;2023-05-18T07:02:45;10.00;99.90
16388;DHT22;8303;53.446;9.988;2023-05-18T07:05:14;10.10;99.90
16388;DHT22;8303;53.446;9.988;2023-05-18T07:07:41;10.20;99.90
16388;DHT22;8303;53.446;9.988;2023-05-18T07:10:09;10.20;99.90
16388;DHT22;8303;53.446;9.988;2023-05-18T07:12:36;10.30;99.90
16388;DHT22;8303;53.446;9.988;2023-05-18T07:15:06;10.20;99.90
16388;DHT22;8303;53.446;9.988;2023-05-18T07:17:34;10.30;99.90
16388;DHT22;8303;53.446;9.988;2023-05-18T07:20:01;10.50;99.90
16388;DHT22;8303;53.446;9.988;2023-05-18T07:22:31;11.00;99.90
16388;DHT22;8303;53.446;9.988;2023-05-18T07:24:59;11.10;99.90
16388;DHT22;8303;53.446;9.988;2023-05-18T07:27:26;11.20;99.90
16388;DHT22;8303;53.446;9.988;2023-05-18T07:29:53;11.00;99.90
16388;DHT22;8303;53.446;9.988;2023-05-18T07:32:21;10.80;99.90
16388;DHT22;8303;53.446;9.988;2023-05-18T07:34:48;11.00;99.90
16388;DHT22;8303;53.446;9.988;2023-05-18T07:37:15;11.00;99.90
16388;DHT22;8303;53.446;9.988;2023-05-18T07:39:44;10.90;99.90
16388;DHT22;8303;53.446;9.988;2023-05-18T07:42:11;10.80;99.90
16388;DHT22;8303;53.446;9.988;2023-05-18T07:44:39;11.00;99.90
16388;DHT22;8303;53.446;9.988;2023-05-18T07:47:08;10.90;99.90
16388;DHT22;8303;53.446;9.988;2023-05-18T07:49:36;10.70;99.90
16388;DHT22;8303;53.446;9.988;2023-05-18T07:52:05;10.90;99.90
16388;DHT22;8303;53.446;9.988;2023-05-18T07:54:33;10.30;99.90
16388;DHT22;8303;53.446;9.988;2023-05-18T07:57:04;10.60;99.90
16388;DHT22;8303;53.446;9.988;2023-05-18T07:59:31;11.00;99.90
16388;DHT22;8303;53.446;9.988;2023-05-18T08:01:58;11.50;99.90
16388;DHT22;8303;53.446;9.988;2023-05-18T08:04:26;12.00;99.90
16388;DHT22;8303;53.446;9.988;2023-05-18T08:06:54;12.20;99.90
16388;DHT22;8303;53.446;9.988;2023-05-18T08:09:25;12.70;99.90
16388;DHT22;8303;53.446;9.988;2023-05-18T08:11:52;12.80;99.90
16388;DHT22;8303;53.446;9.988;2023-05-18T08:14:21;13.00;99.90
16388;DHT22;8303;53.446;9.988;2023-05-18T08:16:48;12.80;99.90
16388;DHT22;8303;53.446;9.988;2023-05-18T08:19:15;12.90;99.90
16388;DHT22;8303;53.446;9.988;2023-05-18T08:21:43;12.50;99.90
16388;DHT22;8303;53.446;9.988;2023-05-18T08:24:11;12.10;99.90
16388;DHT22;8303;53.446;9.988;2023-05-18T08:26:38;12.00;99.90
16388;DHT22;8303;53.446;9.988;2023-05-18T08:29:05;11.90;99.90
16388;DHT22;8303;53.446;9.988;2023-05-18T08:31:37;11.40;99.90
16388;DHT22;8303;53.446;9.988;2023-05-18T08:34:06;11.20;99.90
16388;DHT22;8303;53.446;9.988;2023-05-18T08:36:34;11.30;99.90
16388;DHT22;8303;53.446;9.988;2023-05-18T08:39:02;11.10;99.90
16388;DHT22;8303;53.446;9.988;2023-05-18T08:41:33;11.00;99.90
16388;DHT22;8303;53.446;9.988;2023-05-18T08:44:11;11.20;99.90
16388;DHT22;8303;53.446;9.988;2023-05-18T08:46:41;10.80;99.90
16388;DHT22;8303;53.446;9.988;2023-05-18T08:49:16;10.90;99.90
16388;DHT22;8303;53.446;9.988;2023-05-18T08:51:45;10.90;99.90
16388;DHT22;8303;53.446;9.988;2023-05-18T08:54:18;11.30;99.90
16388;DHT22;8303;53.446;9.988;2023-05-18T08:56:46;11.10;99.90
16388;DHT22;8303;53.446;9.988;2023-05-18T08:59:17;11.00;99.90
16388;DHT22;8303;53.446;9.988;2023-05-18T09:01:47;10.90;99.90
16388;DHT22;8303;53.446;9.988;2023-05-18T09:04:15;10.70;99.90
16388;DHT22;8303;53.446;9.988;2023-05-18T09:06:43;10.40;99.90
16388;DHT22;8303;53.446;9.988;2023-05-18T09:09:11;10.30;99.90
16388;DHT22;8303;53.446;9.988;2023-05-18T09:11:40;10.30;99.90
16388;DHT22;8303;53.446;9.988;2023-05-18T09:14:07;10.30;99.90
16388;DHT22;8303;53.446;9.988;2023-05-18T09:16:35;10.30;99.90
16388;DHT22;8303;53.446;9.988;2023-05-18T09:19:03;10.90;99.90
16388;DHT22;8303;53.446;9.988;2023-05-18T09:21:31;11.10;99.90
16388;DHT22;8303;53.446;9.988;2023-05-18T09:23:59;10.90;99.90
16388;DHT22;8303;53.446;9.988;2023-05-18T09:26:26;11.10;99.90
16388;DHT22;8303;53.446;9.988;2023-05-18T09:28:53;11.10;99.90
16388;DHT22;8303;53.446;9.988;2023-05-18T09:31:21;11.20;99.90
16388;DHT22;8303;53.446;9.988;2023-05-18T09:33:51;11.30;99.90
16388;DHT22;8303;53.446;9.988;2023-05-18T09:36:24;11.60;99.90
16388;DHT22;8303;53.446;9.988;2023-05-18T09:38:53;11.80;99.90
16388;DHT22;8303;53.446;9.988;2023-05-18T09:41:20;11.80;99.90
16388;DHT22;8303;53.446;9.988;2023-05-18T09:43:51;11.90;99.90
16388;DHT22;8303;53.446;9.988;2023-05-18T09:46:20;12.10;99.90
16388;DHT22;8303;53.446;9.988;2023-05-18T09:48:50;11.80;99.90
16388;DHT22;8303;53.446;9.988;2023-05-18T09:51:18;11.80;99.90
16388;DHT22;8303;53.446;9.988;2023-05-18T09:53:54;12.00;99.90
16388;DHT22;8303;53.446;9.988;2023-05-18T09:56:22;12.20;99.90
16388;DHT22;8303;53.446;9.988;2023-05-18T09:58:49;12.20;99.90
16388;DHT22;8303;53.446;9.988;2023-05-18T10:01:17;12.40;99.90
16388;DHT22;8303;53.446;9.988;2023-05-18T10:03:45;12.80;99.90
16388;DHT22;8303;53.446;9.988;2023-05-18T10:06:14;12.90;99.90
16388;DHT22;8303;53.446;9.988;2023-05-18T10:08:44;12.90;99.90
16388;DHT22;8303;53.446;9.988;2023-05-18T10:11:16;12.40;99.90
16388;DHT22;8303;53.446;9.988;2023-05-18T10:13:44;12.10;99.90
16388;DHT22;8303;53.446;9.988;2023-05-18T10:16:14;12.20;99.90
16388;DHT22;8303;53.446;9.988;2023-05-18T10:18:42;12.30;99.90
16388;DHT22;8303;53.446;9.988;2023-05-18T10:21:11;12.40;99.90
16388;DHT22;8303;53.446;9.988;2023-05-18T10:23:39;12.50;99.90
16388;DHT22;8303;53.446;9.988;2023-05-18T10:26:07;12.20;99.90
16388;DHT22;8303;53.446;9.988;2023-05-18T10:28:41;12.30;99.90
16388;DHT22;8303;53.446;9.988;2023-05-18T10:31:09;12.70;99.90
16388;DHT22;8303;53.446;9.988;2023-05-18T10:33:37;12.50;99.90
16388;DHT22;8303;53.446;9.988;2023-05-18T10:36:05;12.60;99.90
16388;DHT22;8303;53.446;9.988;2023-05-18T10:38:36;13.00;99.90
16388;DHT22;8303;53.446;9.988;2023-05-18T10:41:05;13.10;99.90
16388;DHT22;8303;53.446;9.988;2023-05-18T10:43:35;13.60;99.90
16388;DHT22;8303;53.446;9.988;2023-05-18T10:46:05;13.90;99.90
16388;DHT22;8303;53.446;9.988;2023-05-18T10:48:37;13.80;99.90
16388;DHT22;8303;53.446;9.988;2023-05-18T10:51:07;13.90;99.90
16388;DHT22;8303;53.446;9.988;2023-05-18T10:53:34;13.70;99.90
16388;DHT22;8303;53.446;9.988;2023-05-18T10:56:02;13.70;99.90
16388;DHT22;8303;53.446;9.988;2023-05-18T10:58:30;13.90;99.90
16388;DHT22;8303;53.446;9.988;2023-05-18T11:01:00;14.00;99.90
16388;DHT22;8303;53.446;9.988;2023-05-18T11:03:31;14.10;99.90
16388;DHT22;8303;53.446;9.988;2023-05-18T11:06:04;14.00;99.90
16388;DHT22;8303;53.446;9.988;2023-05-18T11:08:34;13.80;99.90
16388;DHT22;8303;53.446;9.988;2023-05-18T11:11:08;13.80;99.90
16388;DHT22;8303;53.446;9.988;2023-05-18T11:13:36;14.00;99.90
16388;DHT22;8303;53.446;9.988;2023-05-18T11:16:05;14.00;99.90
16388;DHT22;8303;53.446;9.988;2023-05-18T11:18:43;14.10;99.90
16388;DHT22;8303;53.446;9.988;2023-05-18T11:21:29;14.20;99.90
16388;DHT22;8303;53.446;9.988;2023-05-18T11:24:13;14.60;99.90
16388;DHT22;8303;53.446;9.988;2023-05-18T11:26:41;15.20;99.90
16388;DHT22;8303;53.446;9.988;2023-05-18T11:29:22;15.10;99.90
16388;DHT22;8303;53.446;9.988;2023-05-18T11:31:51;14.90;99.90
16388;DHT22;8303;53.446;9.988;2023-05-18T11:34:40;14.70;99.90
16388;DHT22;8303;53.446;9.988;2023-05-18T11:37:10;14.40;99.90
16388;DHT22;8303;53.446;9.988;2023-05-18T11:39:38;14.10;99.90
16388;DHT22;8303;53.446;9.988;2023-05-18T11:42:07;13.80;99.90
16388;DHT22;8303;53.446;9.988;2023-05-18T11:44:36;13.90;99.90
16388;DHT22;8303;53.446;9.988;2023-05-18T11:47:08;14.30;99.90
16388;DHT22;8303;53.446;9.988;2023-05-18T11:49:41;14.80;99.90
16388;DHT22;8303;53.446;9.988;2023-05-18T11:52:15;15.50;99.90
16388;DHT22;8303;53.446;9.988;2023-05-18T11:54:44;15.50;99.90
16388;DHT22;8303;53.446;9.988;2023-05-18T11:57:14;15.80;99.90
16388;DHT22;8303;53.446;9.988;2023-05-18T11:59:43;16.00;99.90
16388;DHT22;8303;53.446;9.988;2023-05-18T12:02:17;16.00;99.90
16388;DHT22;8303;53.446;9.988;2023-05-18T12:04:47;16.00;99.90
16388;DHT22;8303;53.446;9.988;2023-05-18T12:07:17;15.80;99.90
16388;DHT22;8303;53.446;9.988;2023-05-18T12:09:45;15.50;99.90
16388;DHT22;8303;53.446;9.988;2023-05-18T12:12:14;15.60;99.90
16388;DHT22;8303;53.446;9.988;2023-05-18T12:14:46;15.50;99.90
16388;DHT22;8303;53.446;9.988;2023-05-18T12:17:15;15.60;99.90
16388;DHT22;8303;53.446;9.988;2023-05-18T12:19:43;15.20;99.90
16388;DHT22;8303;53.446;9.988;2023-05-18T12:22:12;15.00;99.90
16388;DHT22;8303;53.446;9.988;2023-05-18T12:24:41;15.10;99.90
16388;DHT22;8303;53.446;9.988;2023-05-18T12:27:10;15.40;99.90
16388;DHT22;8303;53.446;9.988;2023-05-18T12:29:38;15.50;99.90
16388;DHT22;8303;53.446;9.988;2023-05-18T12:32:07;15.30;99.90
16388;DHT22;8303;53.446;9.988;2023-05-18T12:34:36;15.50;99.90
16388;DHT22;8303;53.446;9.988;2023-05-18T12:37:05;15.00;99.90
16388;DHT22;8303;53.446;9.988;2023-05-18T12:39:34;15.30;99.90
16388;DHT22;8303;53.446;9.988;2023-05-18T12:42:09;15.80;99.90
16388;DHT22;8303;53.446;9.988;2023-05-18T12:44:37;15.60;99.90
16388;DHT22;8303;53.446;9.988;2023-05-18T12:47:04;15.70;99.90
16388;DHT22;8303;53.446;9.988;2023-05-18T12:49:36;16.20;99.90
16388;DHT22;8303;53.446;9.988;2023-05-18T12:52:11;16.80;99.90
16388;DHT22;8303;53.446;9.988;2023-05-18T12:54:51;16.40;99.90
16388;DHT22;8303;53.446;9.988;2023-05-18T12:57:25;16.30;99.90
16388;DHT22;8303;53.446;9.988;2023-05-18T12:59:52;16.70;99.90
16388;DHT22;8303;53.446;9.988;2023-05-18T13:02:31;17.00;99.90
16388;DHT22;8303;53.446;9.988;2023-05-18T13:05:04;17.20;99.90
16388;DHT22;8303;53.446;9.988;2023-05-18T13:07:34;17.50;99.90
16388;DHT22;8303;53.446;9.988;2023-05-18T13:10:04;17.90;99.90
16388;DHT22;8303;53.446;9.988;2023-05-18T13:12:37;18.00;99.90
16388;DHT22;8303;53.446;9.988;2023-05-18T13:15:13;17.60;99.90
16388;DHT22;8303;53.446;9.988;2023-05-18T13:17:56;17.60;99.90
16388;DHT22;8303;53.446;9.988;2023-05-18T13:20:30;18.20;99.90
16388;DHT22;8303;53.446;9.988;2023-05-18T13:22:58;18.10;99.90
16388;DHT22;8303;53.446;9.988;2023-05-18T13:25:30;18.30;99.90
16388;DHT22;8303;53.446;9.988;2023-05-18T13:27:57;18.50;99.90
16388;DHT22;8303;53.446;9.988;2023-05-18T13:30:27;18.90;99.90
16388;DHT22;8303;53.446;9.988;2023-05-18T13:32:54;18.70;99.90
16388;DHT22;8303;53.446;9.988;2023-05-18T13:35:22;19.10;99.90
16388;DHT22;8303;53.446;9.988;2023-05-18T13:37:50;19.20;99.90
16388;DHT22;8303;53.446;9.988;2023-05-18T13:40:18;19.70;99.90
16388;DHT22;8303;53.446;9.988;2023-05-18T13:42:47;19.20;99.90
16388;DHT22;8303;53.446;9.988;2023-05-18T13:45:14;19.00;99.90
16388;DHT22;8303;53.446;9.988;2023-05-18T13:47:41;18.70;99.90
16388;DHT22;8303;53.446;9.988;2023-05-18T13:50:10;18.60;99.90
16388;DHT22;8303;53.446;9.988;2023-05-18T13:52:38;19.30;99.90
16388;DHT22;8303;53.446;9.988;2023-05-18T13:55:06;19.00;99.90
16388;DHT22;8303;53.446;9.988;2023-05-18T13:57:34;18.70;99.90
16388;DHT22;8303;53.446;9.988;2023-05-18T14:00:04;18.70;99.90
16388;DHT22;8303;53.446;9.988;2023-05-18T14:02:34;19.30;99.90
16388;DHT22;8303;53.446;9.988;2023-05-18T14:05:02;19.80;99.90
16388;DHT22;8303;53.446;9.988;2023-05-18T14:07:30;20.40;99.90
16388;DHT22;8303;53.446;9.988;2023-05-18T14:09:57;20.50;99.90
16388;DHT22;8303;53.446;9.988;2023-05-18T14:12:24;20.70;99.90
16388;DHT22;8303;53.446;9.988;2023-05-18T14:14:52;21.00;99.90
16388;DHT22;8303;53.446;9.988;2023-05-18T14:17:20;21.10;99.90
16388;DHT22;8303;53.446;9.988;2023-05-18T14:19:48;21.70;99.90
16388;DHT22;8303;53.446;9.988;2023-05-18T14:22:15;22.30;99.90
16388;DHT22;8303;53.446;9.988;2023-05-18T14:24:43;21.40;99.90
16388;DHT22;8303;53.446;9.988;2023-05-18T14:27:10;21.60;99.90
16388;DHT22;8303;53.446;9.988;2023-05-18T14:29:37;21.60;99.90
16388;DHT22;8303;53.446;9.988;2023-05-18T14:32:06;21.40;99.90
16388;DHT22;8303;53.446;9.988;2023-05-18T14:34:34;21.40;99.90
16388;DHT22;8303;53.446;9.988;2023-05-18T14:37:02;21.70;99.90
16388;DHT22;8303;53.446;9.988;2023-05-18T14:39:29;21.80;99.90
16388;DHT22;8303;53.446;9.988;2023-05-18T14:41:56;22.40;99.90
16388;DHT22;8303;53.446;9.988;2023-05-18T14:44:23;22.10;99.90
16388;DHT22;8303;53.446;9.988;2023-05-18T14:46:51;21.10;99.90
16388;DHT22;8303;53.446;9.988;2023-05-18T14:49:18;21.20;99.90
16388;DHT22;8303;53.446;9.988;2023-05-18T14:51:47;21.80;99.90
16388;DHT22;8303;53.446;9.988;2023-05-18T14:54:14;21.30;99.90
16388;DHT22;8303;53.446;9.988;2023-05-18T14:56:43;21.10;99.90
16388;DHT22;8303;53.446;9.988;2023-05-18T14:59:11;21.30;99.90
16388;DHT22;8303;53.446;9.988;2023-05-18T15:01:38;21.90;99.90
16388;DHT22;8303;53.446;9.988;2023-05-18T15:04:05;21.70;99.90
16388;DHT22;8303;53.446;9.988;2023-05-18T15:06:33;21.30;99.90
16388;DHT22;8303;53.446;9.988;2023-05-18T15:09:03;21.50;99.90
16388;DHT22;8303;53.446;9.988;2023-05-18T15:11:31;22.20;99.90
16388;DHT22;8303;53.446;9.988;2023-05-18T15:13:58;22.10;99.90
16388;DHT22;8303;53.446;9.988;2023-05-18T15:16:26;23.20;99.90
16388;DHT22;8303;53.446;9.988;2023-05-18T15:18:53;23.30;99.90
16388;DHT22;8303;53.446;9.988;2023-05-18T15:21:21;23.70;99.90
16388;DHT22;8303;53.446;9.988;2023-05-18T15:23:48;24.40;99.90
16388;DHT22;8303;53.446;9.988;2023-05-18T15:26:17;25.00;99.90
16388;DHT22;8303;53.446;9.988;2023-05-18T15:28:44;25.90;99.90
16388;DHT22;8303;53.446;9.988;2023-05-18T15:31:12;25.50;99.90
16388;DHT22;8303;53.446;9.988;2023-05-18T15:33:40;25.30;99.90
16388;DHT22;8303;53.446;9.988;2023-05-18T15:36:08;25.50;99.90
16388;DHT22;8303;53.446;9.988;2023-05-18T15:38:35;26.00;99.90
16388;DHT22;8303;53.446;9.988;2023-05-18T15:41:02;26.10;99.90
16388;DHT22;8303;53.446;9.988;2023-05-18T15:43:31;25.50;99.90
16388;DHT22;8303;53.446;9.988;2023-05-18T15:46:01;26.40;99.90
16388;DHT22;8303;53.446;9.988;2023-05-18T15:48:29;26.70;99.90
16388;DHT22;8303;53.446;9.988;2023-05-18T15:50:56;26.30;99.90
16388;DHT22;8303;53.446;9.988;2023-05-18T15:53:23;27.30;99.90
16388;DHT22;8303;53.446;9.988;2023-05-18T15:55:50;26.80;99.90
16388;DHT22;8303;53.446;9.988;2023-05-18T15:58:19;26.30;99.90
16388;DHT22;8303;53.446;9.988;2023-05-18T16:00:49;26.00;99.90
16388;DHT22;8303;53.446;9.988;2023-05-18T16:03:16;26.40;99.90
16388;DHT22;8303;53.446;9.988;2023-05-18T16:05:44;27.00;99.90
16388;DHT22;8303;53.446;9.988;2023-05-18T16:08:11;27.30;99.90
16388;DHT22;8303;53.446;9.988;2023-05-18T16:10:41;26.00;99.90
16388;DHT22;8303;53.446;9.988;2023-05-18T16:13:08;25.10;99.90
16388;DHT22;8303;53.446;9.988;2023-05-18T16:15:35;25.70;99.90
16388;DHT22;8303;53.446;9.988;2023-05-18T16:18:04;26.20;99.90
16388;DHT22;8303;53.446;9.988;2023-05-18T16:20:32;26.60;99.90
16388;DHT22;8303;53.446;9.988;2023-05-18T16:22:59;25.20;99.90
16388;DHT22;8303;53.446;9.988;2023-05-18T16:25:27;24.80;99.90
16388;DHT22;8303;53.446;9.988;2023-05-18T16:27:54;25.50;99.90
16388;DHT22;8303;53.446;9.988;2023-05-18T16:30:22;26.30;99.90
16388;DHT22;8303;53.446;9.988;2023-05-18T16:32:49;26.70;99.90
16388;DHT22;8303;53.446;9.988;2023-05-18T16:35:18;25.80;99.90
16388;DHT22;8303;53.446;9.988;2023-05-18T16:37:46;26.00;99.90
16388;DHT22;8303;53.446;9.988;2023-05-18T16:40:13;25.50;99.90
16388;DHT22;8303;53.446;9.988;2023-05-18T16:42:40;26.40;99.90
16388;DHT22;8303;53.446;9.988;2023-05-18T16:45:12;25.20;99.90
16388;DHT22;8303;53.446;9.988;2023-05-18T16:47:39;25.30;99.90
16388;DHT22;8303;53.446;9.988;2023-05-18T16:50:08;25.90;99.90
16388;DHT22;8303;53.446;9.988;2023-05-18T16:52:38;25.40;99.90
16388;DHT22;8303;53.446;9.988;2023-05-18T16:55:05;24.30;99.90
16388;DHT22;8303;53.446;9.988;2023-05-18T16:57:33;24.80;99.90
16388;DHT22;8303;53.446;9.988;2023-05-18T17:00:02;25.40;99.90
16388;DHT22;8303;53.446;9.988;2023-05-18T17:02:31;25.10;99.90
16388;DHT22;8303;53.446;9.988;2023-05-18T17:05:00;24.70;99.90
16388;DHT22;8303;53.446;9.988;2023-05-18T17:07:27;25.10;99.90
16388;DHT22;8303;53.446;9.988;2023-05-18T17:09:55;24.60;99.90
16388;DHT22;8303;53.446;9.988;2023-05-18T17:12:22;25.20;99.90
16388;DHT22;8303;53.446;9.988;2023-05-18T17:14:50;23.70;99.90
16388;DHT22;8303;53.446;9.988;2023-05-18T17:17:18;23.50;99.90
16388;DHT22;8303;53.446;9.988;2023-05-18T17:19:45;23.50;99.90
16388;DHT22;8303;53.446;9.988;2023-05-18T17:22:13;24.30;99.90
16388;DHT22;8303;53.446;9.988;2023-05-18T17:24:40;23.70;99.90
16388;DHT22;8303;53.446;9.988;2023-05-18T17:27:09;22.50;99.90
16388;DHT22;8303;53.446;9.988;2023-05-18T17:29:37;22.60;99.90
16388;DHT22;8303;53.446;9.988;2023-05-18T17:32:05;23.00;99.90
16388;DHT22;8303;53.446;9.988;2023-05-18T17:34:32;22.70;99.90
16388;DHT22;8303;53.446;9.988;2023-05-18T17:36:59;21.80;99.90
16388;DHT22;8303;53.446;9.988;2023-05-18T17:39:27;21.60;99.90
16388;DHT22;8303;53.446;9.988;2023-05-18T17:41:54;21.80;99.90
16388;DHT22;8303;53.446;9.988;2023-05-18T17:44:23;22.10;99.90
16388;DHT22;8303;53.446;9.988;2023-05-18T17:46:51;22.90;99.90
16388;DHT22;8303;53.446;9.988;2023-05-18T17:49:18;22.90;99.90
16388;DHT22;8303;53.446;9.988;2023-05-18T17:51:46;22.30;99.90
16388;DHT22;8303;53.446;9.988;2023-05-18T17:54:13;21.80;99.90
16388;DHT22;8303;53.446;9.988;2023-05-18T17:56:40;21.30;99.90
16388;DHT22;8303;53.446;9.988;2023-05-18T17:59:07;21.90;99.90
16388;DHT22;8303;53.446;9.988;2023-05-18T18:01:36;21.30;99.90
16388;DHT22;8303;53.446;9.988;2023-05-18T18:04:04;21.70;99.90
16388;DHT22;8303;53.446;9.988;2023-05-18T18:06:31;21.60;99.90
16388;DHT22;8303;53.446;9.988;2023-05-18T18:09:03;21.60;99.90
16388;DHT22;8303;53.446;9.988;2023-05-18T18:11:30;21.70;99.90
16388;DHT22;8303;53.446;9.988;2023-05-18T18:13:58;20.90;99.90
16388;DHT22;8303;53.446;9.988;2023-05-18T18:16:26;20.50;99.90
16388;DHT22;8303;53.446;9.988;2023-05-18T18:18:55;20.20;99.90
16388;DHT22;8303;53.446;9.988;2023-05-18T18:21:24;19.60;99.90
16388;DHT22;8303;53.446;9.988;2023-05-18T18:23:51;19.00;99.90
16388;DHT22;8303;53.446;9.988;2023-05-18T18:26:18;18.80;99.90
16388;DHT22;8303;53.446;9.988;2023-05-18T18:28:46;18.60;99.90
16388;DHT22;8303;53.446;9.988;2023-05-18T18:31:13;18.20;99.90
16388;DHT22;8303;53.446;9.988;2023-05-18T18:33:40;18.20;99.90
16388;DHT22;8303;53.446;9.988;2023-05-18T18:36:12;17.90;99.90
16388;DHT22;8303;53.446;9.988;2023-05-18T18:38:39;17.30;99.90
16388;DHT22;8303;53.446;9.988;2023-05-18T18:41:08;16.80;99.90
16388;DHT22;8303;53.446;9.988;2023-05-18T18:43:35;16.70;99.90
16388;DHT22;8303;53.446;9.988;2023-05-18T18:46:04;16.20;99.90
16388;DHT22;8303;53.446;9.988;2023-05-18T18:48:32;15.80;99.90
16388;DHT22;8303;53.446;9.988;2023-05-18T18:50:59;15.50;99.90
16388;DHT22;8303;53.446;9.988;2023-05-18T18:53:27;15.20;99.90
16388;DHT22;8303;53.446;9.988;2023-05-18T18:55:55;14.90;99.90
16388;DHT22;8303;53.446;9.988;2023-05-18T18:58:24;14.80;99.90
16388;DHT22;8303;53.446;9.988;2023-05-18T19:00:51;14.40;99.90
16388;DHT22;8303;53.446;9.988;2023-05-18T19:03:18;14.20;99.90
16388;DHT22;8303;53.446;9.988;2023-05-18T19:05:47;14.00;99.90
16388;DHT22;8303;53.446;9.988;2023-05-18T19:08:14;13.80;99.90
16388;DHT22;8303;53.446;9.988;2023-05-18T19:10:43;13.70;99.90
16388;DHT22;8303;53.446;9.988;2023-05-18T19:13:10;13.60;99.90
16388;DHT22;8303;53.446;9.988;2023-05-18T19:15:38;13.50;99.90
16388;DHT22;8303;53.446;9.988;2023-05-18T19:18:05;13.30;99.90
16388;DHT22;8303;53.446;9.988;2023-05-18T19:20:33;13.20;99.90
16388;DHT22;8303;53.446;9.988;2023-05-18T19:23:01;13.00;99.90
16388;DHT22;8303;53.446;9.988;2023-05-18T19:25:29;13.00;99.90
16388;DHT22;8303;53.446;9.988;2023-05-18T19:27:59;12.90;99.90
16388;DHT22;8303;53.446;9.988;2023-05-18T19:30:26;12.90;99.90
16388;DHT22;8303;53.446;9.988;2023-05-18T19:32:54;12.80;99.90
16388;DHT22;8303;53.446;9.988;2023-05-18T19:35:22;12.70;99.90
16388;DHT22;8303;53.446;9.988;2023-05-18T19:37:50;12.60;99.90
16388;DHT22;8303;53.446;9.988;2023-05-18T19:40:18;12.50;99.90
16388;DHT22;8303;53.446;9.988;2023-05-18T19:42:46;12.40;99.90
16388;DHT22;8303;53.446;9.988;2023-05-18T19:45:15;12.40;99.90
16388;DHT22;8303;53.446;9.988;2023-05-18T19:47:42;12.30;99.90
16388;DHT22;8303;53.446;9.988;2023-05-18T19:50:10;12.10;99.90
16388;DHT22;8303;53.446;9.988;2023-05-18T19:52:37;12.10;99.90
16388;DHT22;8303;53.446;9.988;2023-05-18T19:55:06;12.00;99.90
16388;DHT22;8303;53.446;9.988;2023-05-18T19:57:33;12.00;99.90
16388;DHT22;8303;53.446;9.988;2023-05-18T20:00:01;12.00;99.90
16388;DHT22;8303;53.446;9.988;2023-05-18T20:02:32;11.90;99.90
16388;DHT22;8303;53.446;9.988;2023-05-18T20:04:59;11.80;99.90
16388;DHT22;8303;53.446;9.988;2023-05-18T20:07:26;11.80;99.90
16388;DHT22;8303;53.446;9.988;2023-05-18T20:09:54;11.70;99.90
16388;DHT22;8303;53.446;9.988;2023-05-18T20:12:21;11.70;99.90
16388;DHT22;8303;53.446;9.988;2023-05-18T20:14:49;11.70;99.90
16388;DHT22;8303;53.446;9.988;2023-05-18T20:17:17;11.60;99.90
16388;DHT22;8303;53.446;9.988;2023-05-18T20:19:46;11.60;99.90
16388;DHT22;8303;53.446;9.988;2023-05-18T20:22:15;11.60;99.90
16388;DHT22;8303;53.446;9.988;2023-05-18T20:24:42;11.50;99.90
16388;DHT22;8303;53.446;9.988;2023-05-18T20:27:11;11.50;99.90
16388;DHT22;8303;53.446;9.988;2023-05-18T20:29:39;11.50;99.90
